createdAt,value
2022-09-14T00:01:40.960Z,1.10
2022-09-14T00:04:10.880Z,1.20
2022-09-14T00:06:39.075Z,1.30
2022-09-14T00:09:08.704Z,1.67
2022-09-14T00:11:37.317Z,1.10
2022-09-14T00:14:14.157Z,1.50
2022-09-14T00:16:42.406Z,1.47
2022-09-14T00:19:17.105Z,1.50
2022-09-14T00:21:45.153Z,2.00
2022-09-14T00:24:14.550Z,1.17
2022-09-14T00:26:42.586Z,1.30
2022-09-14T00:29:11.428Z,1.27
2022-09-14T00:31:40.331Z,1.27
2022-09-14T00:34:09.225Z,1.40
2022-09-14T00:36:39.898Z,1.30
2022-09-14T00:39:08.810Z,1.33
2022-09-14T00:41:40.535Z,1.37
2022-09-14T00:44:09.680Z,1.40
2022-09-14T00:46:39.258Z,1.53
2022-09-14T00:49:08.728Z,1.23
2022-09-14T00:51:37.455Z,1.30
2022-09-14T00:54:09.201Z,1.20
2022-09-14T00:56:38.586Z,1.60
2022-09-14T00:59:07.826Z,1.63
2022-09-14T01:01:35.859Z,1.17
2022-09-14T01:04:03.881Z,1.80
2022-09-14T01:06:36.819Z,1.30
2022-09-14T01:09:16.476Z,1.47
2022-09-14T01:11:52.229Z,1.27
2022-09-14T01:14:29.716Z,1.20
2022-09-14T01:17:07.138Z,1.50
2022-09-14T01:19:43.127Z,1.20
2022-09-14T01:22:12.464Z,1.10
2022-09-14T01:24:43.992Z,1.50
2022-09-14T01:27:24.953Z,1.10
2022-09-14T01:29:55.693Z,1.20
2022-09-14T01:32:25.936Z,0.93
2022-09-14T01:34:56.897Z,1.30
2022-09-14T01:37:27.803Z,1.10
2022-09-14T01:39:58.283Z,1.70
2022-09-14T01:42:27.753Z,1.33
2022-09-14T01:44:56.649Z,1.37
2022-09-14T01:47:28.664Z,1.30
2022-09-14T01:49:58.303Z,1.13
2022-09-14T01:52:28.014Z,1.13
2022-09-14T01:54:57.003Z,1.60
2022-09-14T01:57:26.060Z,1.30
2022-09-14T01:59:57.505Z,0.83
2022-09-14T02:02:27.076Z,1.83
2022-09-14T02:05:00.245Z,1.50
2022-09-14T02:07:28.225Z,1.30
2022-09-14T02:09:56.252Z,1.40
2022-09-14T02:12:24.308Z,1.20
2022-09-14T02:14:53.188Z,1.20
2022-09-14T02:17:22.567Z,1.20
2022-09-14T02:19:53.386Z,1.27
2022-09-14T02:22:21.426Z,1.40
2022-09-14T02:24:49.458Z,1.40
2022-09-14T02:27:17.484Z,1.10
2022-09-14T02:29:45.552Z,1.13
2022-09-14T02:32:31.925Z,1.03
2022-09-14T02:35:11.195Z,1.10
2022-09-14T02:37:43.997Z,1.20
2022-09-14T02:40:14.796Z,1.03
2022-09-14T02:42:46.633Z,1.13
2022-09-14T02:45:19.408Z,1.20
2022-09-14T02:47:55.458Z,1.50
2022-09-14T02:50:26.196Z,1.10
2022-09-14T02:52:57.300Z,1.60
2022-09-14T02:55:26.098Z,1.63
2022-09-14T02:58:00.483Z,1.20
2022-09-14T03:00:28.879Z,1.23
2022-09-14T03:02:58.293Z,1.37
2022-09-14T03:05:26.494Z,1.27
2022-09-14T03:07:57.690Z,1.00
2022-09-14T03:10:31.723Z,1.33
2022-09-14T03:12:59.861Z,0.90
2022-09-14T03:15:27.889Z,1.40
2022-09-14T03:17:55.925Z,1.43
2022-09-14T03:20:26.498Z,1.20
2022-09-14T03:22:54.517Z,1.40
2022-09-14T03:25:23.069Z,1.40
2022-09-14T03:27:51.649Z,1.30
2022-09-14T03:30:19.844Z,1.20
2022-09-14T03:32:48.005Z,1.43
2022-09-14T03:35:16.255Z,1.40
2022-09-14T03:37:45.984Z,1.10
2022-09-14T03:40:20.740Z,1.30
2022-09-14T03:42:50.950Z,1.17
2022-09-14T03:45:19.349Z,1.40
2022-09-14T03:47:47.960Z,1.23
2022-09-14T03:50:16.254Z,1.30
2022-09-14T03:52:45.615Z,1.50
2022-09-14T03:55:13.641Z,1.40
2022-09-14T03:57:41.626Z,1.40
2022-09-14T04:00:10.460Z,1.67
2022-09-14T04:02:38.540Z,1.23
2022-09-14T04:05:07.028Z,1.30
2022-09-14T04:07:35.047Z,1.20
2022-09-14T04:10:05.691Z,1.10
2022-09-14T04:12:35.716Z,1.40
2022-09-14T04:15:03.905Z,1.30
2022-09-14T04:17:31.952Z,1.47
2022-09-14T04:19:59.997Z,1.30
2022-09-14T04:22:28.041Z,1.13
2022-09-14T04:24:56.029Z,1.20
2022-09-14T04:27:25.519Z,1.17
2022-09-14T04:29:53.530Z,1.27
2022-09-14T04:32:21.605Z,1.33
2022-09-14T04:34:49.953Z,1.10
2022-09-14T04:37:18.002Z,1.30
2022-09-14T04:40:10.101Z,1.30
2022-09-14T04:42:39.539Z,1.40
2022-09-14T04:45:08.502Z,1.23
2022-09-14T04:47:36.549Z,0.93
2022-09-14T04:50:04.969Z,1.60
2022-09-14T04:52:33.022Z,1.30
2022-09-14T04:55:01.069Z,1.40
2022-09-14T04:57:29.097Z,1.40
2022-09-14T04:59:58.672Z,1.50
2022-09-14T05:02:27.046Z,1.33
2022-09-14T05:04:55.075Z,1.30
2022-09-14T05:07:23.090Z,1.10
2022-09-14T05:09:51.078Z,1.63
2022-09-14T05:12:19.452Z,1.30
2022-09-14T05:14:47.811Z,1.50
2022-09-14T05:17:17.178Z,1.63
2022-09-14T05:19:45.188Z,1.20
2022-09-14T05:22:13.357Z,1.30
2022-09-14T05:24:41.352Z,1.43
2022-09-14T05:27:09.360Z,1.23
2022-09-14T05:29:39.682Z,1.47
2022-09-14T05:32:07.776Z,1.30
2022-09-14T05:34:37.160Z,1.67
2022-09-14T05:37:05.227Z,1.40
2022-09-14T05:39:47.179Z,1.07
2022-09-14T05:42:15.231Z,1.40
2022-09-14T05:44:43.212Z,1.40
2022-09-14T05:47:11.263Z,1.30
2022-09-14T05:49:40.665Z,1.63
2022-09-14T05:52:08.657Z,1.13
2022-09-14T05:54:36.663Z,1.20
2022-09-14T05:57:05.313Z,1.50
2022-09-14T05:59:33.497Z,1.30
2022-09-14T06:02:01.601Z,1.50
2022-09-14T06:04:29.805Z,1.63
2022-09-14T06:07:17.530Z,1.60
2022-09-14T06:09:46.313Z,1.63
2022-09-14T06:12:14.847Z,1.63
2022-09-14T06:14:42.871Z,1.67
2022-09-14T06:17:10.882Z,1.20
2022-09-14T06:19:38.880Z,1.90
2022-09-14T06:22:14.372Z,1.10
2022-09-14T06:24:42.350Z,1.80
2022-09-14T06:27:10.477Z,1.47
2022-09-14T06:29:38.529Z,1.77
2022-09-14T06:32:07.176Z,1.70
2022-09-14T06:34:35.272Z,1.13
2022-09-14T06:37:03.297Z,1.70
2022-09-14T06:39:32.678Z,1.43
2022-09-14T06:42:00.850Z,1.70
2022-09-14T06:44:28.864Z,1.70
2022-09-14T06:46:56.841Z,1.70
2022-09-14T06:49:24.881Z,1.43
2022-09-14T06:51:55.409Z,1.70
2022-09-14T06:54:23.399Z,2.07
2022-09-14T06:56:52.797Z,1.57
2022-09-14T06:59:20.797Z,1.47
2022-09-14T07:01:52.043Z,1.60
2022-09-14T07:04:20.055Z,1.73
2022-09-14T07:06:48.705Z,1.43
2022-09-14T07:09:17.100Z,2.13
2022-09-14T07:11:45.101Z,1.80
2022-09-14T07:14:14.491Z,1.40
2022-09-14T07:16:42.494Z,1.90
2022-09-14T07:19:12.316Z,1.47
2022-09-14T07:21:40.393Z,1.60
2022-09-14T07:24:08.457Z,1.53
2022-09-14T07:26:40.151Z,1.10
2022-09-14T07:29:09.265Z,1.40
2022-09-14T07:31:40.732Z,1.20
2022-09-14T07:34:08.764Z,1.77
2022-09-14T07:36:53.341Z,1.60
2022-09-14T07:39:21.378Z,1.53
2022-09-14T07:41:49.500Z,1.40
2022-09-14T07:44:18.102Z,1.43
2022-09-14T07:46:47.759Z,1.30
2022-09-14T07:49:15.932Z,1.47
2022-09-14T07:51:43.949Z,1.27
2022-09-14T07:54:12.990Z,1.67
2022-09-14T07:56:41.342Z,1.40
2022-09-14T07:59:34.647Z,1.50
2022-09-14T08:02:00.511Z,1.00
2022-09-14T08:04:28.598Z,1.23
2022-09-14T08:06:56.636Z,1.70
2022-09-14T08:09:27.843Z,1.87
2022-09-14T08:11:58.415Z,1.20
2022-09-14T08:14:29.998Z,1.53
2022-09-14T08:16:59.261Z,1.60
2022-09-14T08:19:28.796Z,1.63
2022-09-14T08:21:56.801Z,1.50
2022-09-14T08:24:25.414Z,1.77
2022-09-14T08:26:53.964Z,2.13
2022-09-14T08:29:21.986Z,1.30
2022-09-14T08:31:51.882Z,1.63
2022-09-14T08:34:20.199Z,1.57
2022-09-14T08:36:49.566Z,1.50
2022-09-14T08:39:20.758Z,1.87
2022-09-14T08:41:54.540Z,1.37
2022-09-14T08:44:25.925Z,1.60
2022-09-14T08:46:57.237Z,1.50
2022-09-14T08:49:32.511Z,2.00
2022-09-14T08:52:01.943Z,1.67
2022-09-14T08:54:29.942Z,2.20
2022-09-14T08:57:00.202Z,1.47
2022-09-14T08:59:38.124Z,1.87
2022-09-14T09:02:19.887Z,2.03
2022-09-14T09:04:52.507Z,1.83
2022-09-14T09:07:25.384Z,2.20
2022-09-14T09:09:54.772Z,2.10
2022-09-14T09:12:23.989Z,2.17
2022-09-14T09:14:53.024Z,1.70
2022-09-14T09:17:23.104Z,1.90
2022-09-14T09:19:57.103Z,1.60
2022-09-14T09:22:27.838Z,1.50
2022-09-14T09:24:56.515Z,2.20
2022-09-14T09:27:25.092Z,2.07
2022-09-14T09:29:53.075Z,2.03
2022-09-14T09:32:22.154Z,2.07
2022-09-14T09:34:50.222Z,1.50
2022-09-14T09:37:20.175Z,1.80
2022-09-14T09:39:49.680Z,1.83
2022-09-14T09:42:22.109Z,1.70
2022-09-14T09:45:02.514Z,1.90
2022-09-14T09:47:33.462Z,1.90
2022-09-14T09:50:02.654Z,1.40
2022-09-14T09:52:32.973Z,1.80
2022-09-14T09:55:02.523Z,1.73
2022-09-14T09:57:31.812Z,1.53
2022-09-14T10:00:21.736Z,2.00
2022-09-14T10:02:49.921Z,1.70
2022-09-14T10:05:36.512Z,2.00
2022-09-14T10:08:10.766Z,2.70
2022-09-14T10:10:44.785Z,1.70
2022-09-14T10:13:23.440Z,1.80
2022-09-14T10:15:51.435Z,1.50
2022-09-14T10:18:19.876Z,1.73
2022-09-14T10:21:06.766Z,1.70
2022-09-14T10:23:40.132Z,1.53
2022-09-14T10:26:24.735Z,1.57
2022-09-14T10:28:52.886Z,1.30
2022-09-14T10:31:28.273Z,1.30
2022-09-14T10:33:57.537Z,1.47
2022-09-14T10:36:27.421Z,1.10
2022-09-14T10:38:58.532Z,1.30
2022-09-14T10:41:31.283Z,1.47
2022-09-14T10:44:37.559Z,1.63
2022-09-14T10:47:27.292Z,1.40
2022-09-14T10:50:03.369Z,1.20
2022-09-14T10:52:36.659Z,1.20
2022-09-14T10:55:42.283Z,1.37
2022-09-14T10:58:24.756Z,1.20
2022-09-14T11:00:58.442Z,1.00
2022-09-14T11:03:32.256Z,1.30
2022-09-14T11:06:07.117Z,1.33
2022-09-14T11:08:37.837Z,1.30
2022-09-14T11:11:23.632Z,1.10
2022-09-14T11:14:07.038Z,1.10
2022-09-14T11:16:47.887Z,1.30
2022-09-14T11:19:24.389Z,1.33
2022-09-14T11:21:56.781Z,1.50
2022-09-14T11:24:26.199Z,1.33
2022-09-14T11:27:00.371Z,1.10
2022-09-14T11:29:31.495Z,1.10
2022-09-14T11:32:19.767Z,1.30
2022-09-14T11:34:54.718Z,1.00
2022-09-14T11:37:25.522Z,1.00
2022-09-14T11:40:03.182Z,1.00
2022-09-14T11:42:33.561Z,1.00
2022-09-14T11:45:05.010Z,1.00
2022-09-14T11:47:35.175Z,1.10
2022-09-14T11:50:16.205Z,1.07
2022-09-14T11:52:44.213Z,1.10
2022-09-14T11:55:16.482Z,1.00
2022-09-14T11:57:45.399Z,1.70
2022-09-14T12:00:59.433Z,0.93
2022-09-14T12:04:02.824Z,0.80
2022-09-14T12:06:54.166Z,1.13
2022-09-14T12:09:41.851Z,1.03
2022-09-14T12:12:34.923Z,1.20
2022-09-14T12:15:03.688Z,1.27
2022-09-14T12:17:40.320Z,1.00
2022-09-14T12:20:30.008Z,1.20
2022-09-14T12:23:08.621Z,1.00
2022-09-14T12:25:36.604Z,0.93
2022-09-14T12:28:04.674Z,0.87
2022-09-14T12:30:45.415Z,1.20
2022-09-14T12:34:01.031Z,0.93
2022-09-14T12:37:17.502Z,1.20
2022-09-14T12:40:34.398Z,1.37
2022-09-14T12:43:51.265Z,0.90
2022-09-14T12:46:40.389Z,1.00
2022-09-14T12:49:31.835Z,0.97
2022-09-14T12:52:20.854Z,0.90
2022-09-14T12:55:12.189Z,1.20
2022-09-14T12:57:43.367Z,1.10
2022-09-14T13:00:14.190Z,0.90
2022-09-14T13:03:15.653Z,1.20
2022-09-14T13:05:45.047Z,1.03
2022-09-14T13:08:13.957Z,1.00
2022-09-14T13:10:50.695Z,1.00
2022-09-14T13:13:19.733Z,1.30
2022-09-14T13:15:53.940Z,1.13
2022-09-14T13:18:36.306Z,1.20
2022-09-14T13:21:05.442Z,1.33
2022-09-14T13:23:38.220Z,1.50
2022-09-14T13:26:13.052Z,1.23
2022-09-14T13:28:41.181Z,0.90
2022-09-14T13:31:13.448Z,1.03
2022-09-14T13:33:47.499Z,1.20
2022-09-14T13:36:17.956Z,1.00
2022-09-14T13:38:45.985Z,1.30
2022-09-14T13:41:15.786Z,1.10
2022-09-14T13:43:44.704Z,0.90
2022-09-14T13:46:15.226Z,1.10
2022-09-14T13:48:46.622Z,0.80
2022-09-14T13:51:14.919Z,0.80
2022-09-14T13:53:45.713Z,1.00
2022-09-14T13:56:21.970Z,0.97
2022-09-14T13:58:50.894Z,1.13
2022-09-14T14:01:28.889Z,1.00
2022-09-14T14:03:59.081Z,1.30
2022-09-14T14:06:27.812Z,0.93
2022-09-14T14:09:01.287Z,1.07
2022-09-14T14:11:35.265Z,1.20
2022-09-14T14:14:21.460Z,1.10
2022-09-14T14:17:24.029Z,1.10
2022-09-14T14:19:53.959Z,1.03
2022-09-14T14:22:28.331Z,2.60
2022-09-14T14:25:14.510Z,0.80
2022-09-14T14:27:44.195Z,1.13
2022-09-14T14:30:15.154Z,1.10
2022-09-14T14:32:43.309Z,0.90
2022-09-14T14:35:16.210Z,0.90
2022-09-14T14:37:44.189Z,1.20
2022-09-14T14:40:13.046Z,1.23
2022-09-14T14:42:41.116Z,1.40
2022-09-14T14:45:13.400Z,0.97
2022-09-14T14:47:41.441Z,1.23
2022-09-14T14:50:16.798Z,0.70
2022-09-14T14:52:45.381Z,1.03
2022-09-14T14:55:13.483Z,1.40
2022-09-14T14:57:41.560Z,1.00
2022-09-14T15:00:14.566Z,1.07
2022-09-14T15:02:42.603Z,1.40
2022-09-14T15:05:10.933Z,1.10
2022-09-14T15:07:40.314Z,1.00
2022-09-14T15:10:11.888Z,1.30
2022-09-14T15:12:47.366Z,1.20
2022-09-14T15:15:15.729Z,1.13
2022-09-14T15:17:43.836Z,1.03
2022-09-14T15:20:11.940Z,1.30
2022-09-14T15:22:42.871Z,1.20
2022-09-14T15:25:11.177Z,1.10
2022-09-14T15:27:39.244Z,1.20
2022-09-14T15:30:08.858Z,1.30
2022-09-14T15:32:36.898Z,1.43
2022-09-14T15:35:05.156Z,1.70
2022-09-14T15:37:33.204Z,1.30
2022-09-14T15:40:02.878Z,1.20
2022-09-14T15:42:31.260Z,1.20
2022-09-14T15:44:59.265Z,1.40
2022-09-14T15:47:27.286Z,1.70
2022-09-14T15:49:55.371Z,1.50
2022-09-14T15:52:23.380Z,1.40
2022-09-14T15:54:51.592Z,0.87
2022-09-14T15:57:20.985Z,1.30
2022-09-14T15:59:49.001Z,1.47
2022-09-14T16:02:20.260Z,1.30
2022-09-14T16:04:48.348Z,1.47
2022-09-14T16:07:16.729Z,1.67
2022-09-14T16:09:44.770Z,1.60
2022-09-14T16:12:13.459Z,1.40
2022-09-14T16:14:42.914Z,1.57
2022-09-14T16:17:11.337Z,1.73
2022-09-14T16:19:39.358Z,1.90
2022-09-14T16:22:07.338Z,2.13
2022-09-14T16:24:37.752Z,2.23
2022-09-14T16:27:06.116Z,2.50
2022-09-14T16:29:34.121Z,1.80
2022-09-14T16:32:03.775Z,2.07
2022-09-14T16:34:31.894Z,2.10
2022-09-14T16:36:59.951Z,1.73
2022-09-14T16:39:29.794Z,2.00
2022-09-14T16:42:20.311Z,2.00
2022-09-14T16:44:51.137Z,2.10
2022-09-14T16:47:20.594Z,2.53
2022-09-14T16:49:48.596Z,2.63
2022-09-14T16:52:16.625Z,2.80
2022-09-14T16:54:44.724Z,2.87
2022-09-14T16:57:12.806Z,3.00
2022-09-14T16:59:40.800Z,2.67
2022-09-14T17:02:10.764Z,2.70
2022-09-14T17:04:40.214Z,2.87
2022-09-14T17:07:08.215Z,2.43
2022-09-14T17:09:36.182Z,2.20
2022-09-14T17:12:04.702Z,2.60
2022-09-14T17:14:33.495Z,3.50
2022-09-14T17:17:01.591Z,2.80
2022-09-14T17:19:29.641Z,2.63
2022-09-14T17:21:59.019Z,3.13
2022-09-14T17:24:27.064Z,2.77
2022-09-14T17:26:55.252Z,2.80
2022-09-14T17:29:23.408Z,3.00
2022-09-14T17:31:51.776Z,2.70
2022-09-14T17:34:33.686Z,2.73
2022-09-14T17:37:03.064Z,2.50
2022-09-14T17:39:31.216Z,2.30
2022-09-14T17:41:59.226Z,1.93
2022-09-14T17:44:31.222Z,2.50
2022-09-14T17:46:59.374Z,2.00
2022-09-14T17:49:27.956Z,2.70
2022-09-14T17:51:58.357Z,2.53
2022-09-14T17:54:27.979Z,2.40
2022-09-14T17:56:55.969Z,2.27
2022-09-14T17:59:24.270Z,2.30
2022-09-14T18:01:52.313Z,2.60
2022-09-14T18:04:20.361Z,2.43
2022-09-14T18:06:49.835Z,2.30
2022-09-14T18:09:33.517Z,2.40
2022-09-14T18:12:03.296Z,2.33
2022-09-14T18:14:31.318Z,2.07
2022-09-14T18:16:59.961Z,2.17
2022-09-14T18:19:28.150Z,2.90
2022-09-14T18:21:56.212Z,2.10
2022-09-14T18:24:24.218Z,2.60
2022-09-14T18:26:52.300Z,2.33
2022-09-14T18:29:23.218Z,2.13
2022-09-14T18:31:51.334Z,2.30
2022-09-14T18:34:19.522Z,2.17
2022-09-14T18:36:47.556Z,3.30
2022-09-14T18:39:15.907Z,2.23
2022-09-14T18:41:44.215Z,2.20
2022-09-14T18:44:12.235Z,2.23
2022-09-14T18:46:41.704Z,2.40
2022-09-14T18:49:10.302Z,2.27
2022-09-14T18:51:38.311Z,2.70
2022-09-14T18:54:07.883Z,2.30
2022-09-14T18:56:37.135Z,2.40
2022-09-14T18:59:06.562Z,2.53
2022-09-14T19:01:35.098Z,2.40
2022-09-14T19:04:05.020Z,2.50
2022-09-14T19:06:33.733Z,2.13
2022-09-14T19:09:01.894Z,2.67
2022-09-14T19:11:31.295Z,2.70
2022-09-14T19:14:10.031Z,2.37
2022-09-14T19:16:39.116Z,2.30
2022-09-14T19:19:08.921Z,2.40
2022-09-14T19:21:36.957Z,2.70
2022-09-14T19:24:06.344Z,2.70
2022-09-14T19:26:43.942Z,2.70
2022-09-14T19:29:13.269Z,2.50
2022-09-14T19:31:41.835Z,2.80
2022-09-14T19:34:11.523Z,2.43
2022-09-14T19:36:53.439Z,2.67
2022-09-14T19:39:25.099Z,2.27
2022-09-14T19:41:53.115Z,2.27
2022-09-14T19:44:22.390Z,2.03
2022-09-14T19:46:50.623Z,2.60
2022-09-14T19:49:21.660Z,2.47
2022-09-14T19:51:50.040Z,2.17
2022-09-14T19:54:18.142Z,2.90
2022-09-14T19:56:49.427Z,3.23
2022-09-14T19:59:17.468Z,2.73
2022-09-14T20:01:45.982Z,3.53
2022-09-14T20:04:14.156Z,3.27
2022-09-14T20:06:44.920Z,2.83
2022-09-14T20:09:16.100Z,2.37
2022-09-14T20:11:45.112Z,2.73
2022-09-14T20:14:14.281Z,2.70
2022-09-14T20:16:43.350Z,2.30
2022-09-14T20:19:13.015Z,2.60
2022-09-14T20:21:41.518Z,3.20
2022-09-14T20:24:17.738Z,3.03
2022-09-14T20:26:46.590Z,2.40
2022-09-14T20:29:32.839Z,2.90
2022-09-14T20:32:00.955Z,3.37
2022-09-14T20:34:29.080Z,2.97
2022-09-14T20:36:57.347Z,2.50
2022-09-14T20:39:26.774Z,2.80
2022-09-14T20:41:54.813Z,2.93
2022-09-14T20:44:23.266Z,2.40
2022-09-14T20:46:57.356Z,2.80
2022-09-14T20:49:25.368Z,3.00
2022-09-14T20:51:54.338Z,2.60
2022-09-14T20:54:22.855Z,3.10
2022-09-14T20:56:52.274Z,3.10
2022-09-14T20:59:22.908Z,3.00
2022-09-14T21:01:51.612Z,2.50
2022-09-14T21:04:20.541Z,3.60
2022-09-14T21:06:49.245Z,2.90
2022-09-14T21:09:18.133Z,3.20
2022-09-14T21:11:46.322Z,3.00
2022-09-14T21:14:15.956Z,3.07
2022-09-14T21:16:46.142Z,2.73
2022-09-14T21:19:15.328Z,2.60
2022-09-14T21:21:43.453Z,2.20
2022-09-14T21:24:17.733Z,3.23
2022-09-14T21:26:46.017Z,2.90
2022-09-14T21:29:17.316Z,3.03
2022-09-14T21:31:45.434Z,2.43
2022-09-14T21:34:13.727Z,2.53
2022-09-14T21:36:42.821Z,2.60
2022-09-14T21:39:12.348Z,3.30
2022-09-14T21:41:41.061Z,2.80
2022-09-14T21:44:09.357Z,2.50
2022-09-14T21:46:38.843Z,3.37
2022-09-14T21:49:07.076Z,3.23
2022-09-14T21:51:36.243Z,2.10
2022-09-14T21:54:05.422Z,2.87
2022-09-14T21:56:34.778Z,2.80
2022-09-14T21:59:04.210Z,3.10
2022-09-14T22:01:46.213Z,3.67
2022-09-14T22:04:16.515Z,2.73
2022-09-14T22:06:45.788Z,3.93
2022-09-14T22:09:13.986Z,3.00
2022-09-14T22:11:42.072Z,3.00
2022-09-14T22:14:20.296Z,3.07
2022-09-14T22:16:51.769Z,3.00
2022-09-14T22:19:43.276Z,2.70
2022-09-14T22:22:11.264Z,3.63
2022-09-14T22:24:39.797Z,4.20
2022-09-14T22:27:08.535Z,3.37
2022-09-14T22:29:36.539Z,2.80
2022-09-14T22:32:11.224Z,2.77
2022-09-14T22:34:41.605Z,3.70
2022-09-14T22:37:09.800Z,3.60
2022-09-14T22:39:37.823Z,3.27
2022-09-14T22:42:06.471Z,2.77
2022-09-14T22:44:34.479Z,4.03
2022-09-14T22:47:02.496Z,2.73
2022-09-14T22:49:30.850Z,3.60
2022-09-14T22:52:00.279Z,3.23
2022-09-14T22:54:28.251Z,3.20
2022-09-14T22:56:56.292Z,3.50
2022-09-14T22:59:24.288Z,2.67
2022-09-14T23:01:52.340Z,2.80
2022-09-14T23:04:20.452Z,3.50
2022-09-14T23:06:48.878Z,3.17
2022-09-14T23:09:19.370Z,4.40
2022-09-14T23:11:47.428Z,3.07
2022-09-14T23:14:16.299Z,4.80
2022-09-14T23:16:45.745Z,2.90
2022-09-14T23:19:15.998Z,3.60
2022-09-14T23:21:44.058Z,4.60
2022-09-14T23:24:12.054Z,3.80
2022-09-14T23:26:41.543Z,3.07
2022-09-14T23:29:12.509Z,4.03
2022-09-14T23:31:40.580Z,3.97
2022-09-14T23:34:08.609Z,4.07
2022-09-14T23:36:39.686Z,3.23
2022-09-14T23:39:07.774Z,4.27
2022-09-14T23:41:35.827Z,2.70
2022-09-14T23:44:05.377Z,3.83
2022-09-14T23:46:33.421Z,3.53
2022-09-14T23:49:01.458Z,3.73
2022-09-14T23:51:29.515Z,2.83
2022-09-14T23:53:57.581Z,2.97
2022-09-14T23:56:25.610Z,3.97
2022-09-14T23:58:53.603Z,3.00
